Terminal Aerodrome Forecast
Issued by NWS

Home | Current Version | Previous Version | Text Only | Print | Product List | Glossary On
Versions: 1 2 3 4 5 6 7 8 9 10 11 12 13 14 15 16 17 18 19 20 21 22 23 24 25 26 27 28 29
000
FTUS42 KTBW 281728
TAFRSW
TAF
KRSW 281728Z 2818/2918 25012KT P6SM VCTS SCT030CB BKN250
     FM282300 25008KT P6SM VCSH SCT035 BKN100
     FM290100 25003KT P6SM FEW010 BKN050 BKN200
     FM291400 25010KT P6SM SHRA BKN040 BKN200=

USA.gov is the U.S. government's official web portal to all federal, state and local government web resources and services.